CMA CGM Volga — 5BJR2 — position and weather

sailwx.info

Track history (hours):
 
Tides and Currents Weather Stations Pressure Air Temp Water Temp Dewpoint Dewpoint Depression Visibility Wind Speed Wind Dir Waves Ship Positions

CMA CGM Volga

Last reported at 2015-May-24 08:18 UTC. Time now 2015-May-26 05:41 UTC.
Position N 59°37' E 023°21'.

Length 184 m; draft 9.4 m.

Type: Ship (hazmat cat A). MMSI: 212456000.

Date/timePositionNaut miles runAvg speedWind from/ knotsBaromVisibWave heightAir tempDewpointWater temp
2015-May-24 08:18N 59°37' E 023°21'1418.1
2015-May-24 07:33N 59°41' E 023°47'2418.0
2015-May-24 06:13N 59°48' E 024°33'3517.6
2015-May-24 04:15N 59°55' E 025°41'1817.7
2015-May-24 03:16N 59°59' E 026°15'1317.8
2015-May-24 02:33N 60°01' E 026°40'2016.9
2015-May-24 01:22N 60°04' E 027°19'7114.8
2015-May-23 20:33N 59°60' E 029°41'1010.5
2015-May-23 19:33N 59°55' E 030°00'6 6.0
2015-May-23 18:33N 59°53' E 030°11'0 0.0
2015-May-23 17:32N 59°53' E 030°11'0 0.0
2015-May-23 16:29N 59°53' E 030°11'0 0.0
2015-May-23 15:32N 59°53' E 030°11'0 0.0
2015-May-23 14:31N 59°53' E 030°11'0 0.0
2015-May-23 13:31N 59°53' E 030°11'0 0.0
2015-May-23 12:32N 59°53' E 030°11'0 0.0
2015-May-23 11:33N 59°53' E 030°11'0 0.0
2015-May-23 10:27N 59°53' E 030°11'0 0.0
2015-May-23 09:30N 59°53' E 030°11'0 0.0
2015-May-23 08:27N 59°53' E 030°11'0 0.0
2015-May-23 07:30N 59°53' E 030°11'0 0.0
2015-May-23 06:33N 59°53' E 030°11'0 0.0
2015-May-23 05:33N 59°53' E 030°11'0 0.0
2015-May-23 04:33N 59°53' E 030°11'0 0.0
2015-May-23 03:33N 59°53' E 030°11'1 0.8
2015-May-23 02:33N 59°53' E 030°10'7 6.9
2015-May-23 01:33N 59°56' E 029°57'10 9.9
2015-May-23 00:33N 59°60' E 029°39'64 2.3
2015-May-21 20:04N 60°05' E 027°30'1019.9
2015-May-21 19:33N 60°00' E 027°13'1919.1
2015-May-21 18:34N 59°59' E 026°35'2020.1
2015-May-21 17:33N 59°54' E 025°56'4020.1
2015-May-21 15:33N 59°44' E 024°38'33218.4
2015-May-20 21:32N 55°00' E 019°18'1818.8
2015-May-20 20:33N 54°42' E 019°10'1716.9
2015-May-20 19:34N 54°27' E 018°59'10 9.8
2015-May-20 18:34N 54°24' E 018°43'0 0.3
2015-May-20 17:33N 54°23' E 018°43'0 0.0
2015-May-20 16:27N 54°23' E 018°43'0 0.0
2015-May-20 15:24N 54°23' E 018°43'0 0.0
2015-May-20 14:21N 54°23' E 018°43'0 0.0
2015-May-20 13:34N 54°23' E 018°43'0 0.0
2015-May-20 12:33N 54°23' E 018°43'0 0.0
2015-May-20 11:30N 54°23' E 018°43'0 0.0
2015-May-20 10:33N 54°23' E 018°43'0 0.0
2015-May-20 09:33N 54°23' E 018°43'0 0.0
2015-May-20 08:27N 54°23' E 018°43'0 0.0
2015-May-20 07:33N 54°23' E 018°43'0 0.0
2015-May-20 06:30N 54°23' E 018°43'0 0.0
2015-May-20 05:33N 54°23' E 018°43'0 0.0
2015-May-20 04:31N 54°23' E 018°43'0 0.0
2015-May-20 03:30N 54°23' E 018°43'0 0.0
2015-May-20 02:33N 54°23' E 018°43'0 0.0
2015-May-20 01:30N 54°23' E 018°43'0 0.0
2015-May-20 00:33N 54°23' E 018°43'0 0.3
2015-May-19 23:34N 54°24' E 018°43'1010.3
2015-May-19 22:34N 54°30' E 018°58'1817.7
2015-May-19 21:33N 54°46' E 019°09'1919.4
2015-May-19 20:33N 55°00' E 019°32'1919.3
2015-May-19 19:33N 55°14' E 019°56'  
2015-May-16 00:26N 59°37' E 023°19'1313.5
2015-May-15 23:27N 59°41' E 023°44'2513.0
2015-May-15 21:30N 59°44' E 024°34'1313.2
2015-May-15 20:33N 59°36' E 024°52'2 0.2
2015-May-15 12:33N 59°34' E 024°54'1212.1
2015-May-15 11:33N 59°42' E 024°36'33214.7
2015-May-14 13:05N 54°58' E 019°18'915.8
2015-May-14 12:31N 54°50' E 019°15'1516.0
2015-May-14 11:33N 54°35' E 019°06'1313.4
2015-May-14 10:33N 54°25' E 018°51'5 4.7
2015-May-14 09:33N 54°23' E 018°43'0 0.0
2015-May-14 08:31N 54°23' E 018°43'  
Track history (hours):
 
Tides and Currents Weather Stations Pressure Air Temp Water Temp Dewpoint Dewpoint Depression Visibility Wind Speed Wind Dir Waves Ship Positions

CMA CGM Volga

Last reported at 2015-May-24 08:18 UTC. Time now 2015-May-26 05:41 UTC.
Position N 59°37' E 023°21'.

Length 184 m; draft 9.4 m.

Type: Ship (hazmat cat A). MMSI: 212456000.

Date/timePositionNaut miles runAvg speedWind from/ knotsBaromVisibWave heightAir tempDewpointWater temp
2015-May-24 08:18N 59°37' E 023°21'1418.1
2015-May-24 07:33N 59°41' E 023°47'2418.0
2015-May-24 06:13N 59°48' E 024°33'3517.6
2015-May-24 04:15N 59°55' E 025°41'1817.7
2015-May-24 03:16N 59°59' E 026°15'1317.8
2015-May-24 02:33N 60°01' E 026°40'2016.9
2015-May-24 01:22N 60°04' E 027°19'7114.8
2015-May-23 20:33N 59°60' E 029°41'1010.5
2015-May-23 19:33N 59°55' E 030°00'6 6.0
2015-May-23 18:33N 59°53' E 030°11'0 0.0
2015-May-23 17:32N 59°53' E 030°11'0 0.0
2015-May-23 16:29N 59°53' E 030°11'0 0.0
2015-May-23 15:32N 59°53' E 030°11'0 0.0
2015-May-23 14:31N 59°53' E 030°11'0 0.0
2015-May-23 13:31N 59°53' E 030°11'0 0.0
2015-May-23 12:32N 59°53' E 030°11'0 0.0
2015-May-23 11:33N 59°53' E 030°11'0 0.0
2015-May-23 10:27N 59°53' E 030°11'0 0.0
2015-May-23 09:30N 59°53' E 030°11'0 0.0
2015-May-23 08:27N 59°53' E 030°11'0 0.0
2015-May-23 07:30N 59°53' E 030°11'0 0.0
2015-May-23 06:33N 59°53' E 030°11'0 0.0
2015-May-23 05:33N 59°53' E 030°11'0 0.0
2015-May-23 04:33N 59°53' E 030°11'0 0.0
2015-May-23 03:33N 59°53' E 030°11'1 0.8
2015-May-23 02:33N 59°53' E 030°10'7 6.9
2015-May-23 01:33N 59°56' E 029°57'10 9.9
2015-May-23 00:33N 59°60' E 029°39'64 2.3
2015-May-21 20:04N 60°05' E 027°30'1019.9
2015-May-21 19:33N 60°00' E 027°13'1919.1
2015-May-21 18:34N 59°59' E 026°35'2020.1
2015-May-21 17:33N 59°54' E 025°56'4020.1
2015-May-21 15:33N 59°44' E 024°38'33218.4
2015-May-20 21:32N 55°00' E 019°18'1818.8
2015-May-20 20:33N 54°42' E 019°10'1716.9
2015-May-20 19:34N 54°27' E 018°59'10 9.8
2015-May-20 18:34N 54°24' E 018°43'0 0.3
2015-May-20 17:33N 54°23' E 018°43'0 0.0
2015-May-20 16:27N 54°23' E 018°43'0 0.0
2015-May-20 15:24N 54°23' E 018°43'0 0.0
2015-May-20 14:21N 54°23' E 018°43'0 0.0
2015-May-20 13:34N 54°23' E 018°43'0 0.0
2015-May-20 12:33N 54°23' E 018°43'0 0.0
2015-May-20 11:30N 54°23' E 018°43'0 0.0
2015-May-20 10:33N 54°23' E 018°43'0 0.0
2015-May-20 09:33N 54°23' E 018°43'0 0.0
2015-May-20 08:27N 54°23' E 018°43'0 0.0
2015-May-20 07:33N 54°23' E 018°43'0 0.0
2015-May-20 06:30N 54°23' E 018°43'0 0.0
2015-May-20 05:33N 54°23' E 018°43'0 0.0
2015-May-20 04:31N 54°23' E 018°43'0 0.0
2015-May-20 03:30N 54°23' E 018°43'0 0.0
2015-May-20 02:33N 54°23' E 018°43'0 0.0
2015-May-20 01:30N 54°23' E 018°43'0 0.0
2015-May-20 00:33N 54°23' E 018°43'0 0.3
2015-May-19 23:34N 54°24' E 018°43'1010.3
2015-May-19 22:34N 54°30' E 018°58'1817.7
2015-May-19 21:33N 54°46' E 019°09'1919.4
2015-May-19 20:33N 55°00' E 019°32'1919.3
2015-May-19 19:33N 55°14' E 019°56'  
2015-May-16 00:26N 59°37' E 023°19'1313.5
2015-May-15 23:27N 59°41' E 023°44'2513.0
2015-May-15 21:30N 59°44' E 024°34'1313.2
2015-May-15 20:33N 59°36' E 024°52'2 0.2
2015-May-15 12:33N 59°34' E 024°54'1212.1
2015-May-15 11:33N 59°42' E 024°36'33214.7
2015-May-14 13:05N 54°58' E 019°18'915.8
2015-May-14 12:31N 54°50' E 019°15'1516.0
2015-May-14 11:33N 54°35' E 019°06'1313.4
2015-May-14 10:33N 54°25' E 018°51'5 4.7
2015-May-14 09:33N 54°23' E 018°43'0 0.0
2015-May-14 08:31N 54°23' E 018°43'  

Dump ship's entire track history